Terminal Aerodrome Forecast
Issued by NWS

Home | Current Version | Previous Version | Text Only | Print | Product List | Glossary On
Versions: 1 2 3 4 5 6 7 8 9 10 11 12 13 14 15 16
000
FTUS42 TJSJ 191120
TAFJBQ
TAF
TJBQ 191120Z 1912/2012 09016G25KT P6SM FEW030 SCT080
     FM191400 09020G29KT P6SM FEW030 SCT060
     FM200200 09011G18KT P6SM FEW030
     FM200500 09008KT P6SM FEW030 SCT060
      AMD NOT SKED 2002/2011=

USA.gov is the U.S. government's official web portal to all federal, state and local government web resources and services.